sensor_id;sensor_type;location;lat;lon;timestamp;P1;durP1;ratioP1;P2;durP2;ratioP2
30335;SDS011;17142;47.990;7.846;2023-08-01T05:20:00;4.30;;;3.30;;
30335;SDS011;17142;47.990;7.846;2023-08-01T05:22:28;10.00;;;3.53;;
30335;SDS011;17142;47.990;7.846;2023-08-01T05:24:56;6.73;;;3.43;;
30335;SDS011;17142;47.990;7.846;2023-08-01T05:27:22;5.30;;;3.60;;
30335;SDS011;17142;47.990;7.846;2023-08-01T05:29:47;10.10;;;3.87;;
30335;SDS011;17142;47.990;7.846;2023-08-01T05:32:13;5.10;;;3.70;;
30335;SDS011;17142;47.990;7.846;2023-08-01T05:34:41;7.27;;;4.63;;
30335;SDS011;17142;47.990;7.846;2023-08-01T05:37:06;6.37;;;4.20;;
30335;SDS011;17142;47.990;7.846;2023-08-01T05:39:32;5.77;;;3.40;;
30335;SDS011;17142;47.990;7.846;2023-08-01T05:41:58;7.30;;;3.17;;
30335;SDS011;17142;47.990;7.846;2023-08-01T05:44:26;7.50;;;3.87;;
30335;SDS011;17142;47.990;7.846;2023-08-01T05:46:51;4.93;;;3.90;;
30335;SDS011;17142;47.990;7.846;2023-08-01T05:49:19;5.57;;;3.40;;
30335;SDS011;17142;47.990;7.846;2023-08-01T05:51:48;5.20;;;4.03;;
30335;SDS011;17142;47.990;7.846;2023-08-01T05:54:15;5.73;;;2.97;;
30335;SDS011;17142;47.990;7.846;2023-08-01T05:56:41;7.47;;;3.50;;
30335;SDS011;17142;47.990;7.846;2023-08-01T05:59:07;5.50;;;4.20;;
30335;SDS011;17142;47.990;7.846;2023-08-01T06:01:32;6.83;;;3.83;;
30335;SDS011;17142;47.990;7.846;2023-08-01T06:04:01;5.53;;;3.50;;
30335;SDS011;17142;47.990;7.846;2023-08-01T06:06:29;5.60;;;3.47;;
30335;SDS011;17142;47.990;7.846;2023-08-01T06:08:57;6.03;;;3.70;;
30335;SDS011;17142;47.990;7.846;2023-08-01T06:11:25;7.60;;;4.10;;
30335;SDS011;17142;47.990;7.846;2023-08-01T06:13:51;5.67;;;3.60;;
30335;SDS011;17142;47.990;7.846;2023-08-01T06:16:17;7.43;;;3.97;;
30335;SDS011;17142;47.990;7.846;2023-08-01T06:18:43;5.20;;;4.33;;
30335;SDS011;17142;47.990;7.846;2023-08-01T06:21:08;5.40;;;4.27;;
30335;SDS011;17142;47.990;7.846;2023-08-01T06:23:34;5.10;;;3.60;;
30335;SDS011;17142;47.990;7.846;2023-08-01T06:26:00;6.97;;;4.00;;
30335;SDS011;17142;47.990;7.846;2023-08-01T06:28:25;6.97;;;4.63;;
30335;SDS011;17142;47.990;7.846;2023-08-01T06:30:53;10.53;;;5.07;;
30335;SDS011;17142;47.990;7.846;2023-08-01T06:33:19;10.40;;;5.70;;
30335;SDS011;17142;47.990;7.846;2023-08-01T06:35:47;8.00;;;4.20;;
30335;SDS011;17142;47.990;7.846;2023-08-01T06:38:12;10.63;;;4.60;;
30335;SDS011;17142;47.990;7.846;2023-08-01T06:40:38;6.23;;;3.57;;
30335;SDS011;17142;47.990;7.846;2023-08-01T06:43:03;5.70;;;3.87;;
30335;SDS011;17142;47.990;7.846;2023-08-01T06:45:29;4.47;;;3.20;;
30335;SDS011;17142;47.990;7.846;2023-08-01T06:47:55;3.83;;;3.37;;
30335;SDS011;17142;47.990;7.846;2023-08-01T06:50:21;5.60;;;3.80;;
30335;SDS011;17142;47.990;7.846;2023-08-01T06:52:47;6.90;;;3.90;;
30335;SDS011;17142;47.990;7.846;2023-08-01T06:55:13;4.00;;;3.60;;
30335;SDS011;17142;47.990;7.846;2023-08-01T06:57:39;4.80;;;2.80;;
30335;SDS011;17142;47.990;7.846;2023-08-01T07:00:07;6.10;;;3.93;;
30335;SDS011;17142;47.990;7.846;2023-08-01T07:02:33;4.87;;;3.50;;
30335;SDS011;17142;47.990;7.846;2023-08-01T07:05:02;9.37;;;3.40;;
30335;SDS011;17142;47.990;7.846;2023-08-01T07:07:29;4.50;;;2.40;;
30335;SDS011;17142;47.990;7.846;2023-08-01T07:10:00;5.73;;;2.97;;
30335;SDS011;17142;47.990;7.846;2023-08-01T07:12:25;4.43;;;3.10;;
30335;SDS011;17142;47.990;7.846;2023-08-01T07:14:51;4.57;;;2.83;;
30335;SDS011;17142;47.990;7.846;2023-08-01T07:17:17;4.67;;;2.90;;
30335;SDS011;17142;47.990;7.846;2023-08-01T07:19:44;5.23;;;2.90;;
30335;SDS011;17142;47.990;7.846;2023-08-01T07:22:10;4.17;;;2.80;;
30335;SDS011;17142;47.990;7.846;2023-08-01T07:24:35;4.57;;;2.70;;
30335;SDS011;17142;47.990;7.846;2023-08-01T07:27:01;5.60;;;2.87;;
30335;SDS011;17142;47.990;7.846;2023-08-01T07:29:29;7.90;;;3.27;;
30335;SDS011;17142;47.990;7.846;2023-08-01T07:31:55;5.07;;;3.23;;
30335;SDS011;17142;47.990;7.846;2023-08-01T07:34:25;7.17;;;3.37;;
30335;SDS011;17142;47.990;7.846;2023-08-01T07:36:50;4.03;;;2.90;;
30335;SDS011;17142;47.990;7.846;2023-08-01T07:39:16;4.07;;;2.63;;
30335;SDS011;17142;47.990;7.846;2023-08-01T07:41:42;3.50;;;2.60;;
30335;SDS011;17142;47.990;7.846;2023-08-01T07:44:07;3.53;;;3.00;;
30335;SDS011;17142;47.990;7.846;2023-08-01T07:46:33;4.43;;;3.30;;
30335;SDS011;17142;47.990;7.846;2023-08-01T07:48:59;4.27;;;3.00;;
30335;SDS011;17142;47.990;7.846;2023-08-01T07:51:27;6.53;;;2.80;;
30335;SDS011;17142;47.990;7.846;2023-08-01T07:53:56;3.90;;;3.47;;
30335;SDS011;17142;47.990;7.846;2023-08-01T07:56:22;5.57;;;2.80;;
30335;SDS011;17142;47.990;7.846;2023-08-01T07:58:48;4.73;;;3.60;;
30335;SDS011;17142;47.990;7.846;2023-08-01T08:01:15;5.60;;;3.20;;
30335;SDS011;17142;47.990;7.846;2023-08-01T08:03:41;4.23;;;2.97;;
30335;SDS011;17142;47.990;7.846;2023-08-01T08:06:07;7.23;;;3.50;;
30335;SDS011;17142;47.990;7.846;2023-08-01T08:08:32;5.40;;;3.50;;
30335;SDS011;17142;47.990;7.846;2023-08-01T08:10:58;3.63;;;3.27;;
30335;SDS011;17142;47.990;7.846;2023-08-01T08:13:24;4.13;;;3.10;;
30335;SDS011;17142;47.990;7.846;2023-08-01T08:15:50;4.40;;;2.90;;
30335;SDS011;17142;47.990;7.846;2023-08-01T08:18:16;9.97;;;3.90;;
30335;SDS011;17142;47.990;7.846;2023-08-01T08:20:44;4.47;;;3.00;;
30335;SDS011;17142;47.990;7.846;2023-08-01T08:23:10;4.00;;;2.30;;
30335;SDS011;17142;47.990;7.846;2023-08-01T08:25:41;3.33;;;2.43;;
30335;SDS011;17142;47.990;7.846;2023-08-01T08:28:09;4.33;;;2.93;;
30335;SDS011;17142;47.990;7.846;2023-08-01T08:30:36;4.43;;;3.20;;
30335;SDS011;17142;47.990;7.846;2023-08-01T08:33:03;3.53;;;2.23;;
30335;SDS011;17142;47.990;7.846;2023-08-01T08:35:35;2.97;;;2.17;;
30335;SDS011;17142;47.990;7.846;2023-08-01T08:38:01;3.63;;;2.17;;
30335;SDS011;17142;47.990;7.846;2023-08-01T08:40:29;3.97;;;2.23;;
30335;SDS011;17142;47.990;7.846;2023-08-01T08:42:56;3.30;;;1.90;;
30335;SDS011;17142;47.990;7.846;2023-08-01T08:45:26;4.50;;;2.80;;
30335;SDS011;17142;47.990;7.846;2023-08-01T08:47:58;5.07;;;2.37;;
30335;SDS011;17142;47.990;7.846;2023-08-01T08:50:26;3.93;;;1.77;;
30335;SDS011;17142;47.990;7.846;2023-08-01T08:52:55;3.20;;;2.10;;
30335;SDS011;17142;47.990;7.846;2023-08-01T08:55:25;2.50;;;1.60;;
30335;SDS011;17142;47.990;7.846;2023-08-01T08:57:52;2.87;;;2.07;;
30335;SDS011;17142;47.990;7.846;2023-08-01T09:00:18;2.10;;;1.90;;
30335;SDS011;17142;47.990;7.846;2023-08-01T09:02:44;2.17;;;1.60;;
30335;SDS011;17142;47.990;7.846;2023-08-01T09:05:10;4.53;;;2.33;;
30335;SDS011;17142;47.990;7.846;2023-08-01T09:07:41;4.07;;;2.60;;
30335;SDS011;17142;47.990;7.846;2023-08-01T09:10:10;3.33;;;2.00;;
30335;SDS011;17142;47.990;7.846;2023-08-01T09:12:35;4.30;;;2.00;;
30335;SDS011;17142;47.990;7.846;2023-08-01T09:15:01;2.90;;;2.10;;
30335;SDS011;17142;47.990;7.846;2023-08-01T09:17:27;1.87;;;1.60;;
30335;SDS011;17142;47.990;7.846;2023-08-01T09:20:02;2.00;;;1.43;;
30335;SDS011;17142;47.990;7.846;2023-08-01T09:22:40;2.70;;;1.97;;
30335;SDS011;17142;47.990;7.846;2023-08-01T09:25:07;4.30;;;2.30;;
30335;SDS011;17142;47.990;7.846;2023-08-01T09:27:33;2.33;;;1.73;;
30335;SDS011;17142;47.990;7.846;2023-08-01T09:30:09;2.10;;;1.73;;
30335;SDS011;17142;47.990;7.846;2023-08-01T09:32:37;3.97;;;2.17;;
30335;SDS011;17142;47.990;7.846;2023-08-01T09:35:03;3.10;;;2.30;;
30335;SDS011;17142;47.990;7.846;2023-08-01T09:37:40;4.90;;;1.90;;
30335;SDS011;17142;47.990;7.846;2023-08-01T09:40:09;3.73;;;2.00;;
30335;SDS011;17142;47.990;7.846;2023-08-01T09:42:39;2.53;;;2.07;;
30335;SDS011;17142;47.990;7.846;2023-08-01T09:45:07;2.03;;;1.57;;
30335;SDS011;17142;47.990;7.846;2023-08-01T09:47:43;3.23;;;2.40;;
30335;SDS011;17142;47.990;7.846;2023-08-01T09:50:11;2.30;;;1.40;;
30335;SDS011;17142;47.990;7.846;2023-08-01T09:52:47;3.30;;;2.30;;
30335;SDS011;17142;47.990;7.846;2023-08-01T09:57:56;3.70;;;2.03;;
30335;SDS011;17142;47.990;7.846;2023-08-01T10:00:26;3.00;;;1.77;;
30335;SDS011;17142;47.990;7.846;2023-08-01T10:02:52;3.33;;;1.80;;
30335;SDS011;17142;47.990;7.846;2023-08-01T10:05:20;3.00;;;1.87;;
30335;SDS011;17142;47.990;7.846;2023-08-01T10:07:47;3.53;;;2.13;;
30335;SDS011;17142;47.990;7.846;2023-08-01T10:10:13;2.83;;;1.33;;
30335;SDS011;17142;47.990;7.846;2023-08-01T10:12:43;3.73;;;1.73;;
30335;SDS011;17142;47.990;7.846;2023-08-01T10:15:13;3.90;;;2.50;;
30335;SDS011;17142;47.990;7.846;2023-08-01T10:17:41;3.70;;;2.20;;
30335;SDS011;17142;47.990;7.846;2023-08-01T10:20:10;2.93;;;1.90;;
30335;SDS011;17142;47.990;7.846;2023-08-01T10:22:37;4.50;;;1.93;;
30335;SDS011;17142;47.990;7.846;2023-08-01T10:25:05;4.00;;;1.90;;
30335;SDS011;17142;47.990;7.846;2023-08-01T10:27:32;3.20;;;1.70;;
30335;SDS011;17142;47.990;7.846;2023-08-01T10:30:03;3.80;;;1.80;;
30335;SDS011;17142;47.990;7.846;2023-08-01T10:32:33;1.70;;;1.60;;
30335;SDS011;17142;47.990;7.846;2023-08-01T10:35:00;3.57;;;1.83;;
30335;SDS011;17142;47.990;7.846;2023-08-01T10:37:26;3.43;;;1.80;;
30335;SDS011;17142;47.990;7.846;2023-08-01T10:40:03;2.60;;;1.47;;
30335;SDS011;17142;47.990;7.846;2023-08-01T10:42:41;4.03;;;1.80;;
30335;SDS011;17142;47.990;7.846;2023-08-01T10:45:18;2.67;;;1.80;;
30335;SDS011;17142;47.990;7.846;2023-08-01T10:47:52;3.80;;;1.93;;
30335;SDS011;17142;47.990;7.846;2023-08-01T10:50:17;2.67;;;2.23;;
30335;SDS011;17142;47.990;7.846;2023-08-01T10:52:43;3.97;;;2.30;;
30335;SDS011;17142;47.990;7.846;2023-08-01T10:55:09;2.90;;;1.97;;
30335;SDS011;17142;47.990;7.846;2023-08-01T10:57:37;2.10;;;1.30;;
30335;SDS011;17142;47.990;7.846;2023-08-01T11:00:06;4.23;;;1.50;;
30335;SDS011;17142;47.990;7.846;2023-08-01T11:02:34;2.57;;;1.70;;
30335;SDS011;17142;47.990;7.846;2023-08-01T11:07:32;2.57;;;1.27;;
30335;SDS011;17142;47.990;7.846;2023-08-01T11:12:27;2.17;;;1.40;;
30335;SDS011;17142;47.990;7.846;2023-08-01T11:14:58;10.83;;;1.70;;
30335;SDS011;17142;47.990;7.846;2023-08-01T11:17:25;3.30;;;1.97;;
30335;SDS011;17142;47.990;7.846;2023-08-01T11:19:50;4.07;;;1.43;;
30335;SDS011;17142;47.990;7.846;2023-08-01T11:22:16;1.57;;;1.10;;
30335;SDS011;17142;47.990;7.846;2023-08-01T11:24:53;2.10;;;1.00;;
30335;SDS011;17142;47.990;7.846;2023-08-01T11:27:21;1.70;;;1.30;;
30335;SDS011;17142;47.990;7.846;2023-08-01T11:29:51;1.33;;;1.20;;
30335;SDS011;17142;47.990;7.846;2023-08-01T11:32:19;2.13;;;1.00;;
30335;SDS011;17142;47.990;7.846;2023-08-01T11:34:46;1.80;;;1.50;;
30335;SDS011;17142;47.990;7.846;2023-08-01T11:37:15;1.53;;;1.30;;
30335;SDS011;17142;47.990;7.846;2023-08-01T11:39:43;2.40;;;1.30;;
30335;SDS011;17142;47.990;7.846;2023-08-01T11:42:18;1.77;;;1.57;;
30335;SDS011;17142;47.990;7.846;2023-08-01T11:44:44;2.50;;;1.27;;
30335;SDS011;17142;47.990;7.846;2023-08-01T11:47:13;2.50;;;1.13;;
30335;SDS011;17142;47.990;7.846;2023-08-01T11:49:44;2.50;;;1.13;;
30335;SDS011;17142;47.990;7.846;2023-08-01T11:52:26;4.47;;;1.40;;
30335;SDS011;17142;47.990;7.846;2023-08-01T11:54:53;2.80;;;1.60;;
30335;SDS011;17142;47.990;7.846;2023-08-01T11:57:20;1.70;;;0.80;;
30335;SDS011;17142;47.990;7.846;2023-08-01T11:59:53;4.33;;;0.53;;
30335;SDS011;17142;47.990;7.846;2023-08-01T12:02:21;0.83;;;0.53;;
30335;SDS011;17142;47.990;7.846;2023-08-01T12:04:47;1.57;;;0.90;;
30335;SDS011;17142;47.990;7.846;2023-08-01T12:07:13;1.23;;;0.60;;
30335;SDS011;17142;47.990;7.846;2023-08-01T12:09:43;2.67;;;0.87;;
30335;SDS011;17142;47.990;7.846;2023-08-01T12:12:28;2.40;;;0.80;;
30335;SDS011;17142;47.990;7.846;2023-08-01T12:14:57;0.97;;;0.77;;
30335;SDS011;17142;47.990;7.846;2023-08-01T12:17:25;1.47;;;1.13;;
30335;SDS011;17142;47.990;7.846;2023-08-01T12:19:56;1.10;;;0.80;;
30335;SDS011;17142;47.990;7.846;2023-08-01T12:22:22;1.07;;;0.83;;
30335;SDS011;17142;47.990;7.846;2023-08-01T12:24:53;1.30;;;1.20;;
30335;SDS011;17142;47.990;7.846;2023-08-01T12:27:20;2.30;;;0.80;;
30335;SDS011;17142;47.990;7.846;2023-08-01T12:29:46;3.60;;;1.20;;
30335;SDS011;17142;47.990;7.846;2023-08-01T12:32:11;2.10;;;1.10;;
30335;SDS011;17142;47.990;7.846;2023-08-01T12:34:39;2.83;;;0.90;;
30335;SDS011;17142;47.990;7.846;2023-08-01T12:37:04;0.83;;;0.50;;
30335;SDS011;17142;47.990;7.846;2023-08-01T12:39:30;0.70;;;0.70;;
30335;SDS011;17142;47.990;7.846;2023-08-01T12:41:56;0.90;;;0.60;;
30335;SDS011;17142;47.990;7.846;2023-08-01T12:44:22;1.57;;;0.63;;
30335;SDS011;17142;47.990;7.846;2023-08-01T12:46:50;1.00;;;0.70;;
30335;SDS011;17142;47.990;7.846;2023-08-01T12:49:17;1.50;;;1.00;;
30335;SDS011;17142;47.990;7.846;2023-08-01T12:51:44;0.90;;;0.60;;
30335;SDS011;17142;47.990;7.846;2023-08-01T12:54:09;1.07;;;0.80;;
30335;SDS011;17142;47.990;7.846;2023-08-01T12:56:35;1.50;;;0.60;;
30335;SDS011;17142;47.990;7.846;2023-08-01T12:59:01;1.40;;;0.80;;
30335;SDS011;17142;47.990;7.846;2023-08-01T13:01:29;1.17;;;0.60;;
30335;SDS011;17142;47.990;7.846;2023-08-01T13:03:56;1.23;;;0.63;;
30335;SDS011;17142;47.990;7.846;2023-08-01T13:06:24;2.00;;;0.73;;
30335;SDS011;17142;47.990;7.846;2023-08-01T13:08:52;1.07;;;0.70;;
30335;SDS011;17142;47.990;7.846;2023-08-01T13:11:18;1.23;;;0.80;;
30335;SDS011;17142;47.990;7.846;2023-08-01T13:13:46;1.40;;;0.90;;
30335;SDS011;17142;47.990;7.846;2023-08-01T13:16:14;0.73;;;0.47;;
30335;SDS011;17142;47.990;7.846;2023-08-01T13:18:40;0.53;;;0.53;;
30335;SDS011;17142;47.990;7.846;2023-08-01T13:21:08;1.97;;;0.60;;
30335;SDS011;17142;47.990;7.846;2023-08-01T13:23:35;3.23;;;0.80;;
30335;SDS011;17142;47.990;7.846;2023-08-01T13:26:03;3.07;;;0.80;;
30335;SDS011;17142;47.990;7.846;2023-08-01T13:28:28;2.63;;;1.43;;
30335;SDS011;17142;47.990;7.846;2023-08-01T13:30:54;1.10;;;1.00;;
30335;SDS011;17142;47.990;7.846;2023-08-01T13:33:22;1.60;;;1.50;;
30335;SDS011;17142;47.990;7.846;2023-08-01T13:35:50;3.33;;;1.77;;
30335;SDS011;17142;47.990;7.846;2023-08-01T13:38:17;2.10;;;1.20;;
30335;SDS011;17142;47.990;7.846;2023-08-01T13:40:43;1.77;;;0.90;;
30335;SDS011;17142;47.990;7.846;2023-08-01T13:43:08;1.00;;;0.90;;
30335;SDS011;17142;47.990;7.846;2023-08-01T13:45:34;1.47;;;1.13;;
30335;SDS011;17142;47.990;7.846;2023-08-01T13:48:00;1.67;;;1.17;;
30335;SDS011;17142;47.990;7.846;2023-08-01T13:50:25;1.33;;;1.00;;
30335;SDS011;17142;47.990;7.846;2023-08-01T13:52:54;1.17;;;0.90;;
30335;SDS011;17142;47.990;7.846;2023-08-01T13:55:19;2.10;;;1.17;;
30335;SDS011;17142;47.990;7.846;2023-08-01T13:57:47;1.30;;;1.00;;
30335;SDS011;17142;47.990;7.846;2023-08-01T14:00:13;1.63;;;1.53;;
30335;SDS011;17142;47.990;7.846;2023-08-01T14:02:39;1.50;;;1.13;;
30335;SDS011;17142;47.990;7.846;2023-08-01T14:05:04;1.53;;;0.90;;
30335;SDS011;17142;47.990;7.846;2023-08-01T14:07:30;1.37;;;0.80;;
30335;SDS011;17142;47.990;7.846;2023-08-01T14:09:59;1.77;;;0.70;;
30335;SDS011;17142;47.990;7.846;2023-08-01T14:12:25;1.30;;;0.90;;
30335;SDS011;17142;47.990;7.846;2023-08-01T14:14:51;1.23;;;0.73;;
30335;SDS011;17142;47.990;7.846;2023-08-01T14:17:19;1.07;;;0.97;;
30335;SDS011;17142;47.990;7.846;2023-08-01T14:19:45;1.33;;;0.80;;
30335;SDS011;17142;47.990;7.846;2023-08-01T14:22:10;1.10;;;0.90;;
30335;SDS011;17142;47.990;7.846;2023-08-01T14:24:38;2.20;;;0.73;;
30335;SDS011;17142;47.990;7.846;2023-08-01T14:27:04;1.70;;;0.80;;
30335;SDS011;17142;47.990;7.846;2023-08-01T14:29:32;4.13;;;0.90;;
30335;SDS011;17142;47.990;7.846;2023-08-01T14:31:58;2.90;;;1.00;;
30335;SDS011;17142;47.990;7.846;2023-08-01T14:34:26;1.57;;;0.80;;
30335;SDS011;17142;47.990;7.846;2023-08-01T14:36:54;1.60;;;0.70;;
30335;SDS011;17142;47.990;7.846;2023-08-01T14:39:19;1.30;;;1.20;;
30335;SDS011;17142;47.990;7.846;2023-08-01T14:41:45;1.60;;;0.90;;
30335;SDS011;17142;47.990;7.846;2023-08-01T14:44:13;2.00;;;0.80;;
30335;SDS011;17142;47.990;7.846;2023-08-01T14:46:41;1.43;;;1.00;;
30335;SDS011;17142;47.990;7.846;2023-08-01T14:49:09;1.23;;;1.13;;
30335;SDS011;17142;47.990;7.846;2023-08-01T14:51:34;2.03;;;0.80;;
30335;SDS011;17142;47.990;7.846;2023-08-01T14:54:00;1.00;;;0.70;;
30335;SDS011;17142;47.990;7.846;2023-08-01T14:56:28;2.30;;;1.20;;
30335;SDS011;17142;47.990;7.846;2023-08-01T14:58:54;0.57;;;0.57;;
30335;SDS011;17142;47.990;7.846;2023-08-01T15:01:20;1.57;;;0.97;;
30335;SDS011;17142;47.990;7.846;2023-08-01T15:03:45;1.93;;;1.30;;
30335;SDS011;17142;47.990;7.846;2023-08-01T15:06:11;2.10;;;0.70;;
30335;SDS011;17142;47.990;7.846;2023-08-01T15:08:40;2.00;;;0.83;;
30335;SDS011;17142;47.990;7.846;2023-08-01T15:11:06;1.20;;;1.10;;
30335;SDS011;17142;47.990;7.846;2023-08-01T15:13:35;1.00;;;0.90;;
30335;SDS011;17142;47.990;7.846;2023-08-01T15:16:01;0.90;;;0.70;;
30335;SDS011;17142;47.990;7.846;2023-08-01T15:18:27;1.80;;;1.40;;
30335;SDS011;17142;47.990;7.846;2023-08-01T15:20:53;2.30;;;1.00;;
30335;SDS011;17142;47.990;7.846;2023-08-01T15:23:19;1.33;;;1.23;;
30335;SDS011;17142;47.990;7.846;2023-08-01T15:25:55;1.27;;;1.17;;
30335;SDS011;17142;47.990;7.846;2023-08-01T15:28:22;1.23;;;0.90;;
30335;SDS011;17142;47.990;7.846;2023-08-01T15:30:49;2.83;;;2.63;;
30335;SDS011;17142;47.990;7.846;2023-08-01T15:33:18;1.23;;;0.80;;
30335;SDS011;17142;47.990;7.846;2023-08-01T15:35:44;1.90;;;1.00;;
30335;SDS011;17142;47.990;7.846;2023-08-01T15:38:09;1.30;;;1.20;;
30335;SDS011;17142;47.990;7.846;2023-08-01T15:40:38;2.10;;;1.03;;
30335;SDS011;17142;47.990;7.846;2023-08-01T15:43:03;1.43;;;1.20;;
30335;SDS011;17142;47.990;7.846;2023-08-01T15:45:29;2.07;;;1.20;;
30335;SDS011;17142;47.990;7.846;2023-08-01T15:47:55;2.10;;;1.10;;
30335;SDS011;17142;47.990;7.846;2023-08-01T15:50:20;4.10;;;1.30;;
30335;SDS011;17142;47.990;7.846;2023-08-01T15:52:46;1.63;;;1.20;;
30335;SDS011;17142;47.990;7.846;2023-08-01T15:55:12;3.50;;;1.13;;
30335;SDS011;17142;47.990;7.846;2023-08-01T15:57:38;1.80;;;1.40;;
30335;SDS011;17142;47.990;7.846;2023-08-01T16:03:29;2.87;;;1.70;;
30335;SDS011;17142;47.990;7.846;2023-08-01T16:05:55;1.57;;;1.20;;
30335;SDS011;17142;47.990;7.846;2023-08-01T16:08:21;2.30;;;1.20;;
30335;SDS011;17142;47.990;7.846;2023-08-01T16:11:07;3.67;;;1.67;;
30335;SDS011;17142;47.990;7.846;2023-08-01T16:13:32;2.30;;;1.37;;
30335;SDS011;17142;47.990;7.846;2023-08-01T16:16:03;1.53;;;1.43;;
30335;SDS011;17142;47.990;7.846;2023-08-01T16:18:37;3.27;;;1.30;;
30335;SDS011;17142;47.990;7.846;2023-08-01T16:21:11;1.10;;;1.00;;
30335;SDS011;17142;47.990;7.846;2023-08-01T16:23:43;2.67;;;1.20;;
30335;SDS011;17142;47.990;7.846;2023-08-01T16:26:09;1.50;;;1.40;;
30335;SDS011;17142;47.990;7.846;2023-08-01T16:28:35;1.57;;;1.23;;
30335;SDS011;17142;47.990;7.846;2023-08-01T16:31:00;1.70;;;1.00;;
30335;SDS011;17142;47.990;7.846;2023-08-01T16:33:35;2.20;;;1.50;;
30335;SDS011;17142;47.990;7.846;2023-08-01T16:36:01;2.27;;;1.67;;
30335;SDS011;17142;47.990;7.846;2023-08-01T16:41:49;2.43;;;1.20;;
30335;SDS011;17142;47.990;7.846;2023-08-01T16:47:13;1.90;;;1.10;;
30335;SDS011;17142;47.990;7.846;2023-08-01T16:49:48;3.20;;;1.40;;
30335;SDS011;17142;47.990;7.846;2023-08-01T16:52:36;1.73;;;1.13;;
30335;SDS011;17142;47.990;7.846;2023-08-01T16:55:04;1.43;;;1.10;;
30335;SDS011;17142;47.990;7.846;2023-08-01T17:00:45;1.13;;;1.03;;
30335;SDS011;17142;47.990;7.846;2023-08-01T17:03:16;1.40;;;1.20;;
30335;SDS011;17142;47.990;7.846;2023-08-01T17:05:48;1.87;;;1.07;;
30335;SDS011;17142;47.990;7.846;2023-08-01T17:08:14;2.73;;;0.93;;
30335;SDS011;17142;47.990;7.846;2023-08-01T17:10:49;1.00;;;0.87;;
30335;SDS011;17142;47.990;7.846;2023-08-01T17:16:22;1.57;;;1.10;;
30335;SDS011;17142;47.990;7.846;2023-08-01T17:18:53;3.47;;;1.10;;
30335;SDS011;17142;47.990;7.846;2023-08-01T17:21:25;0.87;;;0.80;;
30335;SDS011;17142;47.990;7.846;2023-08-01T17:23:56;2.17;;;1.10;;
30335;SDS011;17142;47.990;7.846;2023-08-01T17:26:22;1.43;;;1.00;;
30335;SDS011;17142;47.990;7.846;2023-08-01T17:31:53;1.83;;;1.50;;
30335;SDS011;17142;47.990;7.846;2023-08-01T17:34:19;1.97;;;1.20;;
30335;SDS011;17142;47.990;7.846;2023-08-01T17:39:31;3.23;;;1.40;;
30335;SDS011;17142;47.990;7.846;2023-08-01T17:42:10;1.60;;;1.33;;
30335;SDS011;17142;47.990;7.846;2023-08-01T17:44:45;1.27;;;0.80;;
30335;SDS011;17142;47.990;7.846;2023-08-01T17:47:20;5.50;;;1.33;;
30335;SDS011;17142;47.990;7.846;2023-08-01T17:49:47;1.10;;;1.00;;
30335;SDS011;17142;47.990;7.846;2023-08-01T17:52:16;1.53;;;1.10;;
30335;SDS011;17142;47.990;7.846;2023-08-01T17:54:44;2.20;;;0.97;;
30335;SDS011;17142;47.990;7.846;2023-08-01T17:57:16;1.37;;;0.90;;
30335;SDS011;17142;47.990;7.846;2023-08-01T17:59:44;2.97;;;1.33;;
30335;SDS011;17142;47.990;7.846;2023-08-01T18:02:20;3.23;;;1.00;;
30335;SDS011;17142;47.990;7.846;2023-08-01T18:04:45;1.53;;;1.40;;
30335;SDS011;17142;47.990;7.846;2023-08-01T18:07:20;1.70;;;1.50;;
30335;SDS011;17142;47.990;7.846;2023-08-01T18:09:51;1.70;;;1.40;;
30335;SDS011;17142;47.990;7.846;2023-08-01T18:12:23;1.33;;;1.23;;
30335;SDS011;17142;47.990;7.846;2023-08-01T18:15:54;4.33;;;1.37;;
30335;SDS011;17142;47.990;7.846;2023-08-01T18:18:29;1.73;;;1.17;;
30335;SDS011;17142;47.990;7.846;2023-08-01T18:20:58;2.23;;;0.97;;
30335;SDS011;17142;47.990;7.846;2023-08-01T18:23:49;2.47;;;1.17;;
30335;SDS011;17142;47.990;7.846;2023-08-01T18:26:24;3.17;;;1.63;;
30335;SDS011;17142;47.990;7.846;2023-08-01T18:32:30;2.83;;;1.27;;
30335;SDS011;17142;47.990;7.846;2023-08-01T18:34:56;1.80;;;1.30;;
30335;SDS011;17142;47.990;7.846;2023-08-01T18:48:34;2.67;;;2.00;;
30335;SDS011;17142;47.990;7.846;2023-08-01T18:51:00;1.40;;;1.17;;
30335;SDS011;17142;47.990;7.846;2023-08-01T18:53:33;2.50;;;1.13;;
30335;SDS011;17142;47.990;7.846;2023-08-01T18:56:05;6.87;;;1.37;;
30335;SDS011;17142;47.990;7.846;2023-08-01T18:58:35;2.23;;;1.30;;
30335;SDS011;17142;47.990;7.846;2023-08-01T19:01:22;1.63;;;1.20;;
30335;SDS011;17142;47.990;7.846;2023-08-01T19:03:51;1.63;;;1.37;;
30335;SDS011;17142;47.990;7.846;2023-08-01T19:06:18;3.43;;;1.00;;
30335;SDS011;17142;47.990;7.846;2023-08-01T19:08:47;1.50;;;1.27;;
30335;SDS011;17142;47.990;7.846;2023-08-01T19:11:13;1.87;;;1.20;;
30335;SDS011;17142;47.990;7.846;2023-08-01T19:13:39;2.50;;;1.33;;
30335;SDS011;17142;47.990;7.846;2023-08-01T19:16:05;3.77;;;1.83;;
30335;SDS011;17142;47.990;7.846;2023-08-01T19:18:33;3.07;;;1.43;;
30335;SDS011;17142;47.990;7.846;2023-08-01T19:21:01;1.93;;;1.20;;
30335;SDS011;17142;47.990;7.846;2023-08-01T19:23:29;2.00;;;1.57;;
30335;SDS011;17142;47.990;7.846;2023-08-01T19:26:06;2.00;;;1.10;;
30335;SDS011;17142;47.990;7.846;2023-08-01T19:28:37;1.57;;;1.07;;
30335;SDS011;17142;47.990;7.846;2023-08-01T19:31:03;1.50;;;1.20;;
30335;SDS011;17142;47.990;7.846;2023-08-01T19:33:29;1.63;;;0.83;;
30335;SDS011;17142;47.990;7.846;2023-08-01T19:35:54;5.60;;;3.43;;
30335;SDS011;17142;47.990;7.846;2023-08-01T19:38:22;5.33;;;1.40;;
30335;SDS011;17142;47.990;7.846;2023-08-01T19:40:49;1.97;;;1.30;;
30335;SDS011;17142;47.990;7.846;2023-08-01T19:43:17;2.63;;;1.20;;
30335;SDS011;17142;47.990;7.846;2023-08-01T19:45:42;3.70;;;1.53;;
30335;SDS011;17142;47.990;7.846;2023-08-01T19:48:09;1.80;;;1.30;;
30335;SDS011;17142;47.990;7.846;2023-08-01T19:50:36;2.50;;;0.90;;
30335;SDS011;17142;47.990;7.846;2023-08-01T19:53:04;1.70;;;1.20;;
30335;SDS011;17142;47.990;7.846;2023-08-01T19:55:35;2.77;;;1.60;;
30335;SDS011;17142;47.990;7.846;2023-08-01T19:58:03;4.60;;;1.10;;
30335;SDS011;17142;47.990;7.846;2023-08-01T20:00:29;4.33;;;1.50;;
30335;SDS011;17142;47.990;7.846;2023-08-01T20:02:55;4.77;;;1.20;;
30335;SDS011;17142;47.990;7.846;2023-08-01T20:05:21;2.13;;;1.00;;
30335;SDS011;17142;47.990;7.846;2023-08-01T20:07:47;1.97;;;1.37;;
30335;SDS011;17142;47.990;7.846;2023-08-01T20:10:18;4.63;;;1.30;;
30335;SDS011;17142;47.990;7.846;2023-08-01T20:12:44;4.53;;;1.77;;
30335;SDS011;17142;47.990;7.846;2023-08-01T20:15:10;2.03;;;1.27;;
30335;SDS011;17142;47.990;7.846;2023-08-01T20:17:40;2.60;;;1.20;;
30335;SDS011;17142;47.990;7.846;2023-08-01T20:20:08;1.40;;;1.13;;
30335;SDS011;17142;47.990;7.846;2023-08-01T20:22:34;2.97;;;1.00;;
30335;SDS011;17142;47.990;7.846;2023-08-01T20:25:02;2.37;;;1.10;;
30335;SDS011;17142;47.990;7.846;2023-08-01T20:27:30;2.97;;;1.70;;
30335;SDS011;17142;47.990;7.846;2023-08-01T20:29:56;4.03;;;1.83;;
30335;SDS011;17142;47.990;7.846;2023-08-01T20:32:24;3.60;;;1.40;;
30335;SDS011;17142;47.990;7.846;2023-08-01T20:34:52;2.67;;;1.27;;
30335;SDS011;17142;47.990;7.846;2023-08-01T20:37:25;2.90;;;1.63;;
30335;SDS011;17142;47.990;7.846;2023-08-01T20:39:51;3.00;;;1.70;;
30335;SDS011;17142;47.990;7.846;2023-08-01T20:42:17;1.40;;;1.30;;
30335;SDS011;17142;47.990;7.846;2023-08-01T20:44:50;2.80;;;1.10;;
30335;SDS011;17142;47.990;7.846;2023-08-01T20:55:51;4.03;;;1.63;;
30335;SDS011;17142;47.990;7.846;2023-08-01T20:58:18;1.60;;;1.30;;
30335;SDS011;17142;47.990;7.846;2023-08-01T21:00:44;2.00;;;1.50;;
30335;SDS011;17142;47.990;7.846;2023-08-01T21:03:13;3.67;;;1.20;;
30335;SDS011;17142;47.990;7.846;2023-08-01T21:05:38;4.03;;;1.73;;